Aérodrome :
LOGIN :

S'inscrire | Disclaimer

   EN    FR    IT 

 










Légende :    VFR   VFR Marginal   IFR   IFR Intensif   IFR Très Intensif
Visi : 
Plafond : 
>= 8 km
>= 3000ft
5 à 8 km
1000 à 3000 ft
1500m à 5 km
500 à 1000 ft
800 à 1500m
200 à 500 ft
< 800m
< 200 ft
Symboles :   Orages  Brouillard  Fortes neiges  Fortes précipitations  Vent > 20 kt
SIGMETs :   Divers  Orages  Givrage  Turbulence  Onde Orograph.  Cendres Volcan.







- Altitude de l'aérodrome : 37 ft


EHVL - Vlieland Heliport

DERNIER METAR :
  • 222155Z AUTO 23014KT 9999 OVC340 17/14 Q1024 BLU

METARs EXPIRÉS :
  • 222125Z AUTO 23014KT 9999 OVC340 17/14 Q1024 BLU
  • 222055Z AUTO 22010KT 9999 OVC340 16/14 Q1024 BLU
  • 222025Z AUTO 21008KT 9999 OVC350 16/13 Q1024 BLU
  • 221955Z AUTO 20011KT 9999 SCT370 16/13 Q1024 BLU
  • 221925Z AUTO 20011KT 9999 BKN320 OVC390 17/13 Q1024 BLU

Prévision TAF périmée.
Pas de NOTAMs connus pour ce terrain.



MET'MAP, la Météo Aéronautique d'un coup d'oeil ! - Copyright ORBIFLY Décembre 2007 - Disclaimer

ORBIFLY MET'MAP TEAM :

Programmation & Développement : Alexandra Zaïnal
Conception & Développement : Baudouin d'Aumeries
Co-Programmation & Développement : Marc-Olivier Méhu
Soutien technique & logistique : Manuel Goepfert

Contact : metmap@orbifly.com




SOURCES & CREDITS :

   NOAA